sensor_id;sensor_type;location;lat;lon;timestamp;temperature;humidity
40123;DHT22;25832;45.490;4.912;2023-05-16T00:00:05;13.00;99.90
40123;DHT22;25832;45.490;4.912;2023-05-16T00:02:34;13.00;99.90
40123;DHT22;25832;45.490;4.912;2023-05-16T00:05:00;12.90;99.90
40123;DHT22;25832;45.490;4.912;2023-05-16T00:07:26;12.90;99.90
40123;DHT22;25832;45.490;4.912;2023-05-16T00:09:51;12.90;99.90
40123;DHT22;25832;45.490;4.912;2023-05-16T00:12:17;12.90;99.90
40123;DHT22;25832;45.490;4.912;2023-05-16T00:14:44;12.90;99.90
40123;DHT22;25832;45.490;4.912;2023-05-16T00:17:09;12.80;99.90
40123;DHT22;25832;45.490;4.912;2023-05-16T00:19:39;12.80;99.90
40123;DHT22;25832;45.490;4.912;2023-05-16T00:22:06;12.80;99.90
40123;DHT22;25832;45.490;4.912;2023-05-16T00:24:33;12.70;99.90
40123;DHT22;25832;45.490;4.912;2023-05-16T00:26:58;12.70;99.90
40123;DHT22;25832;45.490;4.912;2023-05-16T00:29:24;12.70;99.90
40123;DHT22;25832;45.490;4.912;2023-05-16T00:31:50;12.60;99.90
40123;DHT22;25832;45.490;4.912;2023-05-16T00:34:16;12.60;99.90
40123;DHT22;25832;45.490;4.912;2023-05-16T00:36:42;12.50;99.90
40123;DHT22;25832;45.490;4.912;2023-05-16T00:39:08;12.50;99.90
40123;DHT22;25832;45.490;4.912;2023-05-16T00:41:35;12.50;99.90
40123;DHT22;25832;45.490;4.912;2023-05-16T00:44:01;12.50;99.90
40123;DHT22;25832;45.490;4.912;2023-05-16T00:46:27;12.60;99.90
40123;DHT22;25832;45.490;4.912;2023-05-16T00:48:53;12.50;99.90
40123;DHT22;25832;45.490;4.912;2023-05-16T00:51:19;12.50;99.90
40123;DHT22;25832;45.490;4.912;2023-05-16T00:53:44;12.50;99.90
40123;DHT22;25832;45.490;4.912;2023-05-16T00:56:10;12.50;99.90
40123;DHT22;25832;45.490;4.912;2023-05-16T00:58:36;12.50;99.90
40123;DHT22;25832;45.490;4.912;2023-05-16T01:01:02;12.40;99.90
40123;DHT22;25832;45.490;4.912;2023-05-16T01:03:29;12.40;99.90
40123;DHT22;25832;45.490;4.912;2023-05-16T01:05:56;12.50;99.90
40123;DHT22;25832;45.490;4.912;2023-05-16T01:08:22;12.40;99.90
40123;DHT22;25832;45.490;4.912;2023-05-16T01:10:58;12.50;99.90
40123;DHT22;25832;45.490;4.912;2023-05-16T01:16:16;12.40;99.90
40123;DHT22;25832;45.490;4.912;2023-05-16T01:19:26;12.40;99.90
40123;DHT22;25832;45.490;4.912;2023-05-16T01:22:10;12.40;99.90
40123;DHT22;25832;45.490;4.912;2023-05-16T01:27:51;12.40;99.90
40123;DHT22;25832;45.490;4.912;2023-05-16T01:30:18;12.40;99.90
40123;DHT22;25832;45.490;4.912;2023-05-16T01:32:44;12.30;99.90
40123;DHT22;25832;45.490;4.912;2023-05-16T01:35:14;12.40;99.90
40123;DHT22;25832;45.490;4.912;2023-05-16T01:40:34;12.30;99.90
40123;DHT22;25832;45.490;4.912;2023-05-16T01:43:06;12.30;99.90
40123;DHT22;25832;45.490;4.912;2023-05-16T01:45:34;12.30;99.90
40123;DHT22;25832;45.490;4.912;2023-05-16T01:48:15;12.40;99.90
40123;DHT22;25832;45.490;4.912;2023-05-16T01:50:51;12.30;99.90
40123;DHT22;25832;45.490;4.912;2023-05-16T01:53:22;12.40;99.90
40123;DHT22;25832;45.490;4.912;2023-05-16T01:55:56;12.40;99.90
40123;DHT22;25832;45.490;4.912;2023-05-16T01:58:25;12.40;99.90
40123;DHT22;25832;45.490;4.912;2023-05-16T02:00:52;12.40;99.90
40123;DHT22;25832;45.490;4.912;2023-05-16T02:03:18;12.40;99.90
40123;DHT22;25832;45.490;4.912;2023-05-16T02:05:44;12.40;99.90
40123;DHT22;25832;45.490;4.912;2023-05-16T02:08:09;12.40;99.90
40123;DHT22;25832;45.490;4.912;2023-05-16T02:10:35;12.40;99.90
40123;DHT22;25832;45.490;4.912;2023-05-16T02:13:01;12.30;99.90
40123;DHT22;25832;45.490;4.912;2023-05-16T02:15:27;12.40;99.90
40123;DHT22;25832;45.490;4.912;2023-05-16T02:17:53;12.30;99.90
40123;DHT22;25832;45.490;4.912;2023-05-16T02:20:18;12.30;99.90
40123;DHT22;25832;45.490;4.912;2023-05-16T02:22:44;12.30;99.90
40123;DHT22;25832;45.490;4.912;2023-05-16T02:25:13;12.30;99.90
40123;DHT22;25832;45.490;4.912;2023-05-16T02:27:39;12.30;99.90
40123;DHT22;25832;45.490;4.912;2023-05-16T02:30:06;12.30;99.90
40123;DHT22;25832;45.490;4.912;2023-05-16T02:32:32;12.30;99.90
40123;DHT22;25832;45.490;4.912;2023-05-16T02:34:58;12.30;99.90
40123;DHT22;25832;45.490;4.912;2023-05-16T02:37:24;12.30;99.90
40123;DHT22;25832;45.490;4.912;2023-05-16T02:39:49;12.30;99.90
40123;DHT22;25832;45.490;4.912;2023-05-16T02:42:15;12.30;99.90
40123;DHT22;25832;45.490;4.912;2023-05-16T02:44:41;12.30;99.90
40123;DHT22;25832;45.490;4.912;2023-05-16T02:47:06;12.30;99.90
40123;DHT22;25832;45.490;4.912;2023-05-16T02:49:32;12.30;99.90
40123;DHT22;25832;45.490;4.912;2023-05-16T02:51:58;12.30;99.90
40123;DHT22;25832;45.490;4.912;2023-05-16T02:54:23;12.30;99.90
40123;DHT22;25832;45.490;4.912;2023-05-16T02:56:49;12.30;99.90
40123;DHT22;25832;45.490;4.912;2023-05-16T02:59:14;12.30;99.90
40123;DHT22;25832;45.490;4.912;2023-05-16T03:01:40;12.30;99.90
40123;DHT22;25832;45.490;4.912;2023-05-16T03:04:06;12.20;99.90
40123;DHT22;25832;45.490;4.912;2023-05-16T03:06:31;12.30;99.90
40123;DHT22;25832;45.490;4.912;2023-05-16T03:08:57;12.20;99.90
40123;DHT22;25832;45.490;4.912;2023-05-16T03:11:23;12.20;99.90
40123;DHT22;25832;45.490;4.912;2023-05-16T03:13:50;12.30;99.90
40123;DHT22;25832;45.490;4.912;2023-05-16T03:16:15;12.20;99.90
40123;DHT22;25832;45.490;4.912;2023-05-16T03:18:42;12.20;99.90
40123;DHT22;25832;45.490;4.912;2023-05-16T03:21:07;12.20;99.90
40123;DHT22;25832;45.490;4.912;2023-05-16T03:23:33;12.20;99.90
40123;DHT22;25832;45.490;4.912;2023-05-16T03:25:59;12.20;99.90
40123;DHT22;25832;45.490;4.912;2023-05-16T03:28:26;12.20;99.90
40123;DHT22;25832;45.490;4.912;2023-05-16T03:30:51;12.20;99.90
40123;DHT22;25832;45.490;4.912;2023-05-16T03:33:17;12.20;99.90
40123;DHT22;25832;45.490;4.912;2023-05-16T03:35:44;12.20;99.90
40123;DHT22;25832;45.490;4.912;2023-05-16T03:38:10;12.20;99.90
40123;DHT22;25832;45.490;4.912;2023-05-16T03:40:36;12.20;99.90
40123;DHT22;25832;45.490;4.912;2023-05-16T03:43:02;12.20;99.90
40123;DHT22;25832;45.490;4.912;2023-05-16T03:45:29;12.20;99.90
40123;DHT22;25832;45.490;4.912;2023-05-16T03:47:55;12.10;99.90
40123;DHT22;25832;45.490;4.912;2023-05-16T03:50:21;12.10;99.90
40123;DHT22;25832;45.490;4.912;2023-05-16T03:52:47;12.10;99.90
40123;DHT22;25832;45.490;4.912;2023-05-16T03:55:12;12.10;99.90
40123;DHT22;25832;45.490;4.912;2023-05-16T03:57:40;12.10;99.90
40123;DHT22;25832;45.490;4.912;2023-05-16T04:00:07;12.10;99.90
40123;DHT22;25832;45.490;4.912;2023-05-16T04:02:33;12.10;99.90
40123;DHT22;25832;45.490;4.912;2023-05-16T04:04:58;12.00;99.90
40123;DHT22;25832;45.490;4.912;2023-05-16T04:07:24;12.00;99.90
40123;DHT22;25832;45.490;4.912;2023-05-16T04:09:51;12.00;99.90
40123;DHT22;25832;45.490;4.912;2023-05-16T04:12:16;12.00;99.90
40123;DHT22;25832;45.490;4.912;2023-05-16T04:14:43;12.00;99.90
40123;DHT22;25832;45.490;4.912;2023-05-16T04:17:08;12.00;99.90
40123;DHT22;25832;45.490;4.912;2023-05-16T04:19:35;12.00;99.90
40123;DHT22;25832;45.490;4.912;2023-05-16T04:22:01;12.00;99.90
40123;DHT22;25832;45.490;4.912;2023-05-16T04:24:26;12.00;99.90
40123;DHT22;25832;45.490;4.912;2023-05-16T04:26:53;11.90;99.90
40123;DHT22;25832;45.490;4.912;2023-05-16T04:29:20;11.90;99.90
40123;DHT22;25832;45.490;4.912;2023-05-16T04:31:46;12.00;99.90
40123;DHT22;25832;45.490;4.912;2023-05-16T04:34:12;11.90;99.90
40123;DHT22;25832;45.490;4.912;2023-05-16T04:36:37;11.90;99.90
40123;DHT22;25832;45.490;4.912;2023-05-16T04:39:03;12.00;99.90
40123;DHT22;25832;45.490;4.912;2023-05-16T04:41:29;11.90;99.90
40123;DHT22;25832;45.490;4.912;2023-05-16T04:43:55;12.00;99.90
40123;DHT22;25832;45.490;4.912;2023-05-16T04:46:20;12.00;99.90
40123;DHT22;25832;45.490;4.912;2023-05-16T04:48:46;12.00;99.90
40123;DHT22;25832;45.490;4.912;2023-05-16T04:51:12;11.90;99.90
40123;DHT22;25832;45.490;4.912;2023-05-16T04:53:37;12.00;99.90
40123;DHT22;25832;45.490;4.912;2023-05-16T04:56:03;11.90;99.90
40123;DHT22;25832;45.490;4.912;2023-05-16T04:58:30;11.90;99.90
40123;DHT22;25832;45.490;4.912;2023-05-16T05:00:56;11.90;99.90
40123;DHT22;25832;45.490;4.912;2023-05-16T05:03:22;11.90;99.90
40123;DHT22;25832;45.490;4.912;2023-05-16T05:05:48;11.90;99.90
40123;DHT22;25832;45.490;4.912;2023-05-16T05:08:14;11.90;99.90
40123;DHT22;25832;45.490;4.912;2023-05-16T05:10:39;11.90;99.90
40123;DHT22;25832;45.490;4.912;2023-05-16T05:13:06;11.90;99.90
40123;DHT22;25832;45.490;4.912;2023-05-16T05:15:31;11.90;99.90
40123;DHT22;25832;45.490;4.912;2023-05-16T05:17:57;11.80;99.90
40123;DHT22;25832;45.490;4.912;2023-05-16T05:20:23;11.80;99.90
40123;DHT22;25832;45.490;4.912;2023-05-16T05:22:49;11.80;99.90
40123;DHT22;25832;45.490;4.912;2023-05-16T05:25:14;11.80;99.90
40123;DHT22;25832;45.490;4.912;2023-05-16T05:27:40;11.80;99.90
40123;DHT22;25832;45.490;4.912;2023-05-16T05:30:06;11.80;99.90
40123;DHT22;25832;45.490;4.912;2023-05-16T05:32:32;11.80;99.90
40123;DHT22;25832;45.490;4.912;2023-05-16T05:34:58;11.70;99.90
40123;DHT22;25832;45.490;4.912;2023-05-16T05:37:25;11.70;99.90
40123;DHT22;25832;45.490;4.912;2023-05-16T05:39:51;11.70;99.90
40123;DHT22;25832;45.490;4.912;2023-05-16T05:42:17;11.70;99.90
40123;DHT22;25832;45.490;4.912;2023-05-16T05:44:42;11.60;99.90
40123;DHT22;25832;45.490;4.912;2023-05-16T05:47:08;11.60;99.90
40123;DHT22;25832;45.490;4.912;2023-05-16T05:49:34;11.60;99.90
40123;DHT22;25832;45.490;4.912;2023-05-16T05:52:00;11.60;99.90
40123;DHT22;25832;45.490;4.912;2023-05-16T05:54:26;11.60;99.90
40123;DHT22;25832;45.490;4.912;2023-05-16T05:56:51;11.60;99.90
40123;DHT22;25832;45.490;4.912;2023-05-16T05:59:17;11.60;99.90
40123;DHT22;25832;45.490;4.912;2023-05-16T06:01:43;11.50;99.90
40123;DHT22;25832;45.490;4.912;2023-05-16T06:04:09;11.50;99.90
40123;DHT22;25832;45.490;4.912;2023-05-16T06:06:36;11.50;99.90
40123;DHT22;25832;45.490;4.912;2023-05-16T06:09:02;11.50;99.90
40123;DHT22;25832;45.490;4.912;2023-05-16T06:11:28;11.40;99.90
40123;DHT22;25832;45.490;4.912;2023-05-16T06:13:54;11.40;99.90
40123;DHT22;25832;45.490;4.912;2023-05-16T06:16:23;11.40;99.90
40123;DHT22;25832;45.490;4.912;2023-05-16T06:18:49;11.40;99.90
40123;DHT22;25832;45.490;4.912;2023-05-16T06:21:15;11.40;99.90
40123;DHT22;25832;45.490;4.912;2023-05-16T06:23:41;11.40;99.90
40123;DHT22;25832;45.490;4.912;2023-05-16T06:26:06;11.40;99.90
40123;DHT22;25832;45.490;4.912;2023-05-16T06:28:32;11.50;99.90
40123;DHT22;25832;45.490;4.912;2023-05-16T06:30:58;11.50;99.90
40123;DHT22;25832;45.490;4.912;2023-05-16T06:33:24;11.50;99.90
40123;DHT22;25832;45.490;4.912;2023-05-16T06:35:50;11.50;99.90
40123;DHT22;25832;45.490;4.912;2023-05-16T06:38:17;11.50;99.90
40123;DHT22;25832;45.490;4.912;2023-05-16T06:40:43;11.50;99.90
40123;DHT22;25832;45.490;4.912;2023-05-16T06:43:10;11.50;99.90
40123;DHT22;25832;45.490;4.912;2023-05-16T06:45:36;11.50;99.90
40123;DHT22;25832;45.490;4.912;2023-05-16T06:48:03;11.40;99.90
40123;DHT22;25832;45.490;4.912;2023-05-16T06:50:28;11.50;99.90
40123;DHT22;25832;45.490;4.912;2023-05-16T06:52:54;11.50;99.90
40123;DHT22;25832;45.490;4.912;2023-05-16T06:55:19;11.50;99.90
40123;DHT22;25832;45.490;4.912;2023-05-16T06:57:45;11.50;99.90
40123;DHT22;25832;45.490;4.912;2023-05-16T07:00:12;11.50;99.90
40123;DHT22;25832;45.490;4.912;2023-05-16T07:02:38;11.50;99.90
40123;DHT22;25832;45.490;4.912;2023-05-16T07:05:05;11.50;99.90
40123;DHT22;25832;45.490;4.912;2023-05-16T07:07:30;11.50;99.90
40123;DHT22;25832;45.490;4.912;2023-05-16T07:09:56;11.50;99.90
40123;DHT22;25832;45.490;4.912;2023-05-16T07:12:22;11.60;99.90
40123;DHT22;25832;45.490;4.912;2023-05-16T07:14:47;11.60;99.90
40123;DHT22;25832;45.490;4.912;2023-05-16T07:17:13;11.60;99.90
40123;DHT22;25832;45.490;4.912;2023-05-16T07:19:39;11.60;99.90
40123;DHT22;25832;45.490;4.912;2023-05-16T07:22:05;11.60;99.90
40123;DHT22;25832;45.490;4.912;2023-05-16T07:24:31;11.60;99.90
40123;DHT22;25832;45.490;4.912;2023-05-16T07:26:56;11.60;99.90
40123;DHT22;25832;45.490;4.912;2023-05-16T07:29:23;11.60;99.90
40123;DHT22;25832;45.490;4.912;2023-05-16T07:31:49;11.50;99.90
40123;DHT22;25832;45.490;4.912;2023-05-16T07:34:14;11.60;99.90
40123;DHT22;25832;45.490;4.912;2023-05-16T07:36:40;11.50;99.90
40123;DHT22;25832;45.490;4.912;2023-05-16T07:39:06;11.50;99.90
40123;DHT22;25832;45.490;4.912;2023-05-16T07:41:32;11.50;99.90
40123;DHT22;25832;45.490;4.912;2023-05-16T07:43:58;11.50;99.90
40123;DHT22;25832;45.490;4.912;2023-05-16T07:46:23;11.50;99.90
40123;DHT22;25832;45.490;4.912;2023-05-16T07:48:49;11.50;99.90
40123;DHT22;25832;45.490;4.912;2023-05-16T07:51:15;11.50;99.90
40123;DHT22;25832;45.490;4.912;2023-05-16T07:53:41;11.50;99.90
40123;DHT22;25832;45.490;4.912;2023-05-16T07:56:07;11.50;99.90
40123;DHT22;25832;45.490;4.912;2023-05-16T07:58:33;11.50;99.90
40123;DHT22;25832;45.490;4.912;2023-05-16T08:00:58;11.60;99.90
40123;DHT22;25832;45.490;4.912;2023-05-16T08:03:24;11.60;99.90
40123;DHT22;25832;45.490;4.912;2023-05-16T08:05:50;11.60;99.90
40123;DHT22;25832;45.490;4.912;2023-05-16T08:08:16;11.60;99.90
40123;DHT22;25832;45.490;4.912;2023-05-16T08:10:42;11.50;99.90
40123;DHT22;25832;45.490;4.912;2023-05-16T08:13:08;11.50;99.90
40123;DHT22;25832;45.490;4.912;2023-05-16T08:15:34;11.40;99.90
40123;DHT22;25832;45.490;4.912;2023-05-16T08:18:00;11.30;99.90
40123;DHT22;25832;45.490;4.912;2023-05-16T08:20:26;11.20;99.90
40123;DHT22;25832;45.490;4.912;2023-05-16T08:22:53;11.20;99.90
40123;DHT22;25832;45.490;4.912;2023-05-16T08:25:18;11.10;99.90
40123;DHT22;25832;45.490;4.912;2023-05-16T08:27:45;11.10;99.90
40123;DHT22;25832;45.490;4.912;2023-05-16T08:30:12;11.10;99.90
40123;DHT22;25832;45.490;4.912;2023-05-16T08:32:38;11.00;99.90
40123;DHT22;25832;45.490;4.912;2023-05-16T08:35:04;11.00;99.90
40123;DHT22;25832;45.490;4.912;2023-05-16T08:37:30;11.00;99.90
40123;DHT22;25832;45.490;4.912;2023-05-16T08:39:57;11.00;99.90
40123;DHT22;25832;45.490;4.912;2023-05-16T08:42:23;11.00;99.90
40123;DHT22;25832;45.490;4.912;2023-05-16T08:44:49;11.00;99.90
40123;DHT22;25832;45.490;4.912;2023-05-16T08:47:18;11.00;99.90
40123;DHT22;25832;45.490;4.912;2023-05-16T08:49:47;11.00;99.90
40123;DHT22;25832;45.490;4.912;2023-05-16T08:52:18;11.00;99.90
40123;DHT22;25832;45.490;4.912;2023-05-16T08:54:45;11.00;99.90
40123;DHT22;25832;45.490;4.912;2023-05-16T08:57:11;11.00;99.90
40123;DHT22;25832;45.490;4.912;2023-05-16T08:59:38;11.00;99.90
40123;DHT22;25832;45.490;4.912;2023-05-16T09:02:05;11.00;99.90
40123;DHT22;25832;45.490;4.912;2023-05-16T09:04:31;11.00;99.90
40123;DHT22;25832;45.490;4.912;2023-05-16T09:06:56;11.00;99.90
40123;DHT22;25832;45.490;4.912;2023-05-16T09:09:23;11.00;99.90
40123;DHT22;25832;45.490;4.912;2023-05-16T09:11:49;11.10;99.90
40123;DHT22;25832;45.490;4.912;2023-05-16T09:14:14;11.10;99.90
40123;DHT22;25832;45.490;4.912;2023-05-16T09:16:40;11.10;99.90
40123;DHT22;25832;45.490;4.912;2023-05-16T09:19:06;11.10;99.90
40123;DHT22;25832;45.490;4.912;2023-05-16T09:21:32;11.10;99.90
40123;DHT22;25832;45.490;4.912;2023-05-16T09:24:05;11.10;99.90
40123;DHT22;25832;45.490;4.912;2023-05-16T09:26:36;11.10;99.90
40123;DHT22;25832;45.490;4.912;2023-05-16T09:29:12;11.10;99.90
40123;DHT22;25832;45.490;4.912;2023-05-16T09:31:39;11.10;99.90
40123;DHT22;25832;45.490;4.912;2023-05-16T09:34:09;11.10;99.90
40123;DHT22;25832;45.490;4.912;2023-05-16T09:36:37;11.00;99.90
40123;DHT22;25832;45.490;4.912;2023-05-16T09:39:04;11.00;99.90
40123;DHT22;25832;45.490;4.912;2023-05-16T09:41:33;11.00;99.90
40123;DHT22;25832;45.490;4.912;2023-05-16T09:44:03;11.00;99.90
40123;DHT22;25832;45.490;4.912;2023-05-16T09:46:31;11.10;99.90
40123;DHT22;25832;45.490;4.912;2023-05-16T09:48:58;11.10;99.90
40123;DHT22;25832;45.490;4.912;2023-05-16T09:51:23;11.10;99.90
40123;DHT22;25832;45.490;4.912;2023-05-16T09:53:50;11.20;99.90
40123;DHT22;25832;45.490;4.912;2023-05-16T09:56:16;11.20;99.90
40123;DHT22;25832;45.490;4.912;2023-05-16T09:58:43;11.20;99.90
40123;DHT22;25832;45.490;4.912;2023-05-16T10:01:10;11.20;99.90
40123;DHT22;25832;45.490;4.912;2023-05-16T10:03:40;11.20;99.90
40123;DHT22;25832;45.490;4.912;2023-05-16T10:06:06;11.20;99.90
40123;DHT22;25832;45.490;4.912;2023-05-16T10:08:33;11.30;99.90
40123;DHT22;25832;45.490;4.912;2023-05-16T10:11:02;11.20;99.90
40123;DHT22;25832;45.490;4.912;2023-05-16T10:13:30;11.30;99.90
40123;DHT22;25832;45.490;4.912;2023-05-16T10:15:58;11.30;99.90
40123;DHT22;25832;45.490;4.912;2023-05-16T10:18:32;11.30;99.90
40123;DHT22;25832;45.490;4.912;2023-05-16T10:21:04;11.30;99.90
40123;DHT22;25832;45.490;4.912;2023-05-16T10:23:32;11.30;99.90
40123;DHT22;25832;45.490;4.912;2023-05-16T10:26:01;11.40;99.90
40123;DHT22;25832;45.490;4.912;2023-05-16T10:28:28;11.50;99.90
40123;DHT22;25832;45.490;4.912;2023-05-16T10:30:54;11.50;99.90
40123;DHT22;25832;45.490;4.912;2023-05-16T10:33:20;11.50;99.90
40123;DHT22;25832;45.490;4.912;2023-05-16T10:35:47;11.50;99.90
40123;DHT22;25832;45.490;4.912;2023-05-16T10:38:16;11.50;99.90
40123;DHT22;25832;45.490;4.912;2023-05-16T10:40:42;11.60;99.90
40123;DHT22;25832;45.490;4.912;2023-05-16T10:43:09;11.60;99.90
40123;DHT22;25832;45.490;4.912;2023-05-16T10:45:41;11.60;99.90
40123;DHT22;25832;45.490;4.912;2023-05-16T10:48:07;11.70;99.90
40123;DHT22;25832;45.490;4.912;2023-05-16T10:50:44;11.70;99.90
40123;DHT22;25832;45.490;4.912;2023-05-16T10:53:32;11.70;99.90
40123;DHT22;25832;45.490;4.912;2023-05-16T11:01:22;11.70;99.90
40123;DHT22;25832;45.490;4.912;2023-05-16T11:04:10;11.70;99.90
40123;DHT22;25832;45.490;4.912;2023-05-16T11:09:16;11.80;99.90
40123;DHT22;25832;45.490;4.912;2023-05-16T11:11:57;11.80;99.90
40123;DHT22;25832;45.490;4.912;2023-05-16T11:19:48;11.70;99.90
40123;DHT22;25832;45.490;4.912;2023-05-16T11:22:32;11.80;99.90
40123;DHT22;25832;45.490;4.912;2023-05-16T11:29:58;11.70;99.90
40123;DHT22;25832;45.490;4.912;2023-05-16T11:32:25;11.70;99.90
40123;DHT22;25832;45.490;4.912;2023-05-16T11:34:51;11.70;99.90
40123;DHT22;25832;45.490;4.912;2023-05-16T11:37:18;11.60;99.90
40123;DHT22;25832;45.490;4.912;2023-05-16T11:39:44;11.60;99.90
40123;DHT22;25832;45.490;4.912;2023-05-16T11:42:11;11.60;99.90
40123;DHT22;25832;45.490;4.912;2023-05-16T11:44:38;11.60;99.90
40123;DHT22;25832;45.490;4.912;2023-05-16T11:47:05;11.70;99.90
40123;DHT22;25832;45.490;4.912;2023-05-16T11:49:32;11.70;99.90
40123;DHT22;25832;45.490;4.912;2023-05-16T11:51:58;11.70;99.90
40123;DHT22;25832;45.490;4.912;2023-05-16T11:54:23;11.70;99.90
40123;DHT22;25832;45.490;4.912;2023-05-16T11:56:50;11.80;99.90
40123;DHT22;25832;45.490;4.912;2023-05-16T11:59:16;11.80;99.90
40123;DHT22;25832;45.490;4.912;2023-05-16T12:01:42;11.80;99.90
40123;DHT22;25832;45.490;4.912;2023-05-16T12:04:09;11.80;99.90
40123;DHT22;25832;45.490;4.912;2023-05-16T12:06:36;11.80;99.90
40123;DHT22;25832;45.490;4.912;2023-05-16T12:09:03;11.80;99.90
40123;DHT22;25832;45.490;4.912;2023-05-16T12:11:44;11.80;99.90
40123;DHT22;25832;45.490;4.912;2023-05-16T12:14:11;11.80;99.90
40123;DHT22;25832;45.490;4.912;2023-05-16T12:16:38;11.80;99.90
40123;DHT22;25832;45.490;4.912;2023-05-16T12:19:07;11.80;99.90
40123;DHT22;25832;45.490;4.912;2023-05-16T12:21:33;11.80;99.90
40123;DHT22;25832;45.490;4.912;2023-05-16T12:23:59;11.80;99.90
40123;DHT22;25832;45.490;4.912;2023-05-16T12:26:26;11.80;99.90
40123;DHT22;25832;45.490;4.912;2023-05-16T12:28:59;11.90;99.90
40123;DHT22;25832;45.490;4.912;2023-05-16T12:31:28;11.90;99.90
40123;DHT22;25832;45.490;4.912;2023-05-16T12:33:55;11.90;99.90
40123;DHT22;25832;45.490;4.912;2023-05-16T12:36:23;11.90;99.90
40123;DHT22;25832;45.490;4.912;2023-05-16T12:38:49;12.00;99.90
40123;DHT22;25832;45.490;4.912;2023-05-16T12:41:23;11.90;99.90
40123;DHT22;25832;45.490;4.912;2023-05-16T12:43:49;11.80;99.90
40123;DHT22;25832;45.490;4.912;2023-05-16T12:46:15;11.80;99.90
40123;DHT22;25832;45.490;4.912;2023-05-16T12:48:41;11.80;99.90
40123;DHT22;25832;45.490;4.912;2023-05-16T12:51:17;11.80;99.90
40123;DHT22;25832;45.490;4.912;2023-05-16T12:53:46;11.80;99.90
40123;DHT22;25832;45.490;4.912;2023-05-16T12:56:12;11.80;99.90
40123;DHT22;25832;45.490;4.912;2023-05-16T12:58:39;11.80;99.90
40123;DHT22;25832;45.490;4.912;2023-05-16T13:01:05;11.90;99.90
40123;DHT22;25832;45.490;4.912;2023-05-16T13:03:31;11.90;99.90
40123;DHT22;25832;45.490;4.912;2023-05-16T13:05:57;11.90;99.90
40123;DHT22;25832;45.490;4.912;2023-05-16T13:08:24;11.90;99.90
40123;DHT22;25832;45.490;4.912;2023-05-16T13:10:50;11.90;99.90
40123;DHT22;25832;45.490;4.912;2023-05-16T13:13:16;11.90;99.90
40123;DHT22;25832;45.490;4.912;2023-05-16T13:15:44;11.90;99.90
40123;DHT22;25832;45.490;4.912;2023-05-16T13:18:09;11.90;99.90
40123;DHT22;25832;45.490;4.912;2023-05-16T13:20:35;11.90;99.90
40123;DHT22;25832;45.490;4.912;2023-05-16T13:23:01;11.90;99.90
40123;DHT22;25832;45.490;4.912;2023-05-16T13:25:27;11.90;99.90
40123;DHT22;25832;45.490;4.912;2023-05-16T13:27:52;12.00;99.90
40123;DHT22;25832;45.490;4.912;2023-05-16T13:30:18;12.00;99.90
40123;DHT22;25832;45.490;4.912;2023-05-16T13:32:44;12.00;99.90
40123;DHT22;25832;45.490;4.912;2023-05-16T13:35:10;12.00;99.90
40123;DHT22;25832;45.490;4.912;2023-05-16T13:37:36;12.10;99.90
40123;DHT22;25832;45.490;4.912;2023-05-16T13:40:02;12.20;99.90
40123;DHT22;25832;45.490;4.912;2023-05-16T13:42:29;12.20;99.90
40123;DHT22;25832;45.490;4.912;2023-05-16T13:44:55;12.20;99.90
40123;DHT22;25832;45.490;4.912;2023-05-16T13:47:20;12.10;99.90
40123;DHT22;25832;45.490;4.912;2023-05-16T13:49:46;12.10;99.90
40123;DHT22;25832;45.490;4.912;2023-05-16T13:52:12;12.10;99.90
40123;DHT22;25832;45.490;4.912;2023-05-16T13:54:39;12.10;99.90
40123;DHT22;25832;45.490;4.912;2023-05-16T13:57:06;12.10;99.90
40123;DHT22;25832;45.490;4.912;2023-05-16T13:59:32;12.10;99.90
40123;DHT22;25832;45.490;4.912;2023-05-16T14:01:57;12.10;99.90
40123;DHT22;25832;45.490;4.912;2023-05-16T14:04:23;12.10;99.90
40123;DHT22;25832;45.490;4.912;2023-05-16T14:06:50;12.10;99.90
40123;DHT22;25832;45.490;4.912;2023-05-16T14:09:16;12.10;99.90
40123;DHT22;25832;45.490;4.912;2023-05-16T14:11:41;12.10;99.90
40123;DHT22;25832;45.490;4.912;2023-05-16T14:14:07;12.10;99.90
40123;DHT22;25832;45.490;4.912;2023-05-16T14:16:33;12.10;99.90
40123;DHT22;25832;45.490;4.912;2023-05-16T14:18:58;12.10;99.90
40123;DHT22;25832;45.490;4.912;2023-05-16T14:21:24;12.10;99.90
40123;DHT22;25832;45.490;4.912;2023-05-16T14:23:51;12.00;99.90
40123;DHT22;25832;45.490;4.912;2023-05-16T14:26:16;12.00;99.90
40123;DHT22;25832;45.490;4.912;2023-05-16T14:28:47;12.00;99.90
40123;DHT22;25832;45.490;4.912;2023-05-16T14:31:12;12.10;99.90
40123;DHT22;25832;45.490;4.912;2023-05-16T14:33:38;12.10;99.90
40123;DHT22;25832;45.490;4.912;2023-05-16T14:36:06;12.10;99.90
40123;DHT22;25832;45.490;4.912;2023-05-16T14:38:32;12.10;99.90
40123;DHT22;25832;45.490;4.912;2023-05-16T14:40:57;12.10;99.90
40123;DHT22;25832;45.490;4.912;2023-05-16T14:43:23;12.10;99.90
40123;DHT22;25832;45.490;4.912;2023-05-16T14:45:49;12.10;99.90
40123;DHT22;25832;45.490;4.912;2023-05-16T14:48:14;12.20;99.90
40123;DHT22;25832;45.490;4.912;2023-05-16T14:50:41;12.30;99.90
40123;DHT22;25832;45.490;4.912;2023-05-16T14:53:07;12.30;99.90
40123;DHT22;25832;45.490;4.912;2023-05-16T14:55:33;12.30;99.90
40123;DHT22;25832;45.490;4.912;2023-05-16T14:57:58;12.30;99.90
40123;DHT22;25832;45.490;4.912;2023-05-16T15:00:24;12.30;99.90
40123;DHT22;25832;45.490;4.912;2023-05-16T15:02:50;12.30;99.90
40123;DHT22;25832;45.490;4.912;2023-05-16T15:05:16;12.30;99.90
40123;DHT22;25832;45.490;4.912;2023-05-16T15:07:42;12.30;99.90
40123;DHT22;25832;45.490;4.912;2023-05-16T15:10:09;12.20;99.90
40123;DHT22;25832;45.490;4.912;2023-05-16T15:12:35;12.20;99.90
40123;DHT22;25832;45.490;4.912;2023-05-16T15:15:01;12.20;99.90
40123;DHT22;25832;45.490;4.912;2023-05-16T15:17:26;12.20;99.90
40123;DHT22;25832;45.490;4.912;2023-05-16T15:19:52;12.10;99.90
40123;DHT22;25832;45.490;4.912;2023-05-16T15:22:19;12.10;99.90
40123;DHT22;25832;45.490;4.912;2023-05-16T15:24:45;12.00;99.90
40123;DHT22;25832;45.490;4.912;2023-05-16T15:27:11;12.00;99.90
40123;DHT22;25832;45.490;4.912;2023-05-16T15:29:36;12.10;99.90
40123;DHT22;25832;45.490;4.912;2023-05-16T15:32:03;12.10;99.90
40123;DHT22;25832;45.490;4.912;2023-05-16T15:34:30;12.20;99.90
40123;DHT22;25832;45.490;4.912;2023-05-16T15:36:57;12.20;99.90
40123;DHT22;25832;45.490;4.912;2023-05-16T15:39:23;12.20;99.90
40123;DHT22;25832;45.490;4.912;2023-05-16T15:41:50;12.20;99.90
40123;DHT22;25832;45.490;4.912;2023-05-16T15:44:16;12.20;99.90
40123;DHT22;25832;45.490;4.912;2023-05-16T15:46:42;12.20;99.90
40123;DHT22;25832;45.490;4.912;2023-05-16T15:49:08;12.20;99.90
40123;DHT22;25832;45.490;4.912;2023-05-16T15:51:34;12.20;99.90
40123;DHT22;25832;45.490;4.912;2023-05-16T15:54:01;12.20;99.90